createdAt,value
2023-04-08T00:01:08.452Z,1.50
2023-04-08T00:03:35.806Z,1.80
2023-04-08T00:06:03.989Z,1.80
2023-04-08T00:08:31.493Z,1.55
2023-04-08T00:10:58.763Z,1.73
2023-04-08T00:13:26.481Z,2.03
2023-04-08T00:15:53.708Z,1.85
2023-04-08T00:18:21.033Z,1.55
2023-04-08T00:20:47.833Z,1.58
2023-04-08T00:23:15.099Z,1.73
2023-04-08T00:25:42.078Z,1.40
2023-04-08T00:28:09.393Z,1.63
2023-04-08T00:30:37.227Z,1.35
2023-04-08T00:33:04.726Z,1.50
2023-04-08T00:35:32.248Z,1.58
2023-04-08T00:37:59.476Z,1.45
2023-04-08T00:40:26.856Z,1.50
2023-04-08T00:42:54.112Z,1.60
2023-04-08T00:45:21.674Z,1.30
2023-04-08T00:47:52.817Z,1.40
2023-04-08T00:50:20.619Z,1.60
2023-04-08T00:52:47.459Z,1.60
2023-04-08T00:55:14.352Z,1.38
2023-04-08T00:57:41.952Z,1.65
2023-04-08T01:00:09.713Z,1.50
2023-04-08T01:03:08.833Z,1.90
2023-04-08T01:05:48.152Z,2.10
2023-04-08T01:08:17.814Z,1.90
2023-04-08T01:10:48.520Z,1.77
2023-04-08T01:13:18.342Z,2.63
2023-04-08T01:15:46.122Z,2.35
2023-04-08T01:18:15.664Z,1.67
2023-04-08T01:20:44.301Z,2.10
2023-04-08T01:23:36.870Z,2.08
2023-04-08T01:26:04.199Z,2.00
2023-04-08T01:28:32.988Z,1.52
2023-04-08T01:31:02.084Z,1.92
2023-04-08T01:33:31.490Z,2.25
2023-04-08T01:36:00.916Z,2.53
2023-04-08T01:38:29.295Z,2.45
2023-04-08T01:40:57.206Z,2.20
2023-04-08T01:43:25.446Z,2.08
2023-04-08T01:45:58.219Z,2.20
2023-04-08T01:48:25.921Z,1.92
2023-04-08T01:50:54.732Z,1.92
2023-04-08T01:53:21.915Z,1.70
2023-04-08T01:55:54.375Z,1.77
2023-04-08T01:58:22.724Z,1.40
2023-04-08T02:00:51.150Z,1.65
2023-04-08T02:03:20.387Z,1.75
2023-04-08T02:05:48.024Z,1.80
2023-04-08T02:08:15.344Z,1.42
2023-04-08T02:10:42.352Z,1.40
2023-04-08T02:13:09.211Z,1.70
2023-04-08T02:15:41.861Z,1.60
2023-04-08T02:18:26.933Z,1.50
2023-04-08T02:21:11.945Z,1.60
2023-04-08T02:23:41.289Z,1.23
2023-04-08T02:26:14.175Z,1.52
2023-04-08T02:28:42.204Z,1.52
2023-04-08T02:31:13.725Z,1.70
2023-04-08T02:33:46.067Z,1.65
2023-04-08T02:36:13.585Z,1.55
2023-04-08T02:38:41.359Z,1.40
2023-04-08T02:41:08.841Z,1.33
2023-04-08T02:43:36.836Z,1.52
2023-04-08T02:46:07.379Z,1.73
2023-04-08T02:48:36.732Z,1.42
2023-04-08T02:51:03.750Z,1.40
2023-04-08T02:53:31.145Z,1.73
2023-04-08T02:55:58.458Z,1.52
2023-04-08T02:58:25.416Z,1.35
2023-04-08T03:00:52.406Z,1.33
2023-04-08T03:03:19.779Z,1.60
2023-04-08T03:05:46.678Z,1.42
2023-04-08T03:08:13.910Z,1.20
2023-04-08T03:10:40.861Z,1.50
2023-04-08T03:13:08.090Z,1.17
2023-04-08T03:15:35.536Z,1.30
2023-04-08T03:18:02.832Z,1.30
2023-04-08T03:20:29.646Z,1.20
2023-04-08T03:22:56.868Z,1.50
2023-04-08T03:25:23.797Z,1.35
2023-04-08T03:27:51.192Z,1.50
2023-04-08T03:30:18.583Z,1.88
2023-04-08T03:32:45.474Z,1.23
2023-04-08T03:35:12.450Z,1.85
2023-04-08T03:37:39.698Z,1.70
2023-04-08T03:40:07.321Z,1.42
2023-04-08T03:42:35.179Z,1.40
2023-04-08T03:45:02.533Z,1.55
2023-04-08T03:47:29.738Z,1.80
2023-04-08T03:49:56.961Z,1.80
2023-04-08T03:52:24.855Z,2.05
2023-04-08T03:54:51.689Z,1.90
2023-04-08T03:57:18.919Z,1.70
2023-04-08T03:59:46.137Z,2.10
2023-04-08T04:02:13.421Z,1.95
2023-04-08T04:04:40.629Z,2.10
2023-04-08T04:07:07.949Z,2.65
2023-04-08T04:09:35.205Z,2.30
2023-04-08T04:12:02.394Z,2.15
2023-04-08T04:14:29.190Z,2.20
2023-04-08T04:16:56.032Z,2.10
2023-04-08T04:19:23.418Z,2.10
2023-04-08T04:21:50.806Z,2.33
2023-04-08T04:24:17.698Z,2.20
2023-04-08T04:26:44.982Z,2.50
2023-04-08T04:29:12.009Z,2.50
2023-04-08T04:31:39.343Z,2.17
2023-04-08T04:34:06.770Z,2.60
2023-04-08T04:36:33.637Z,3.05
2023-04-08T04:39:01.096Z,3.05
2023-04-08T04:41:28.657Z,3.28
2023-04-08T04:43:55.499Z,2.63
2023-04-08T04:46:22.375Z,3.15
2023-04-08T04:48:49.864Z,3.17
2023-04-08T04:51:16.800Z,2.92
2023-04-08T04:53:43.664Z,3.10
2023-04-08T04:56:11.167Z,4.05
2023-04-08T04:58:38.428Z,2.85
2023-04-08T05:01:05.663Z,3.75
2023-04-08T05:03:32.546Z,3.75
2023-04-08T05:06:00.037Z,3.28
2023-04-08T05:08:27.954Z,3.75
2023-04-08T05:10:56.165Z,3.50
2023-04-08T05:13:23.524Z,3.00
2023-04-08T05:15:50.488Z,3.65
2023-04-08T05:18:18.183Z,3.22
2023-04-08T05:20:46.124Z,4.00
2023-04-08T05:23:13.494Z,3.80
2023-04-08T05:25:41.042Z,3.50
2023-04-08T05:28:08.251Z,3.53
2023-04-08T05:30:35.632Z,3.72
2023-04-08T05:33:02.487Z,3.25
2023-04-08T05:35:29.766Z,3.28
2023-04-08T05:37:57.042Z,3.55
2023-04-08T05:40:24.101Z,3.50
2023-04-08T05:42:51.350Z,3.80
2023-04-08T05:45:18.595Z,3.75
2023-04-08T05:47:46.045Z,4.15
2023-04-08T05:50:13.376Z,3.28
2023-04-08T05:52:47.051Z,4.47
2023-04-08T05:55:14.352Z,4.03
2023-04-08T05:57:41.758Z,3.90
2023-04-08T06:00:10.531Z,3.65
2023-04-08T06:02:38.469Z,3.88
2023-04-08T06:05:06.584Z,4.00
2023-04-08T06:07:34.455Z,3.90
2023-04-08T06:10:01.831Z,4.25
2023-04-08T06:12:28.832Z,4.68
2023-04-08T06:14:56.574Z,4.32
2023-04-08T06:17:23.569Z,4.07
2023-04-08T06:19:50.915Z,4.05
2023-04-08T06:22:18.193Z,4.97
2023-04-08T06:24:45.405Z,4.10
2023-04-08T06:27:13.003Z,3.83
2023-04-08T06:29:41.152Z,4.38
2023-04-08T06:32:09.967Z,4.60
2023-04-08T06:34:38.010Z,4.30
2023-04-08T06:37:06.124Z,4.85
2023-04-08T06:39:33.620Z,4.18
2023-04-08T06:42:00.837Z,4.70
2023-04-08T06:44:37.826Z,4.32
2023-04-08T06:47:05.394Z,4.72
2023-04-08T06:49:32.670Z,4.00
2023-04-08T06:51:59.588Z,3.90
2023-04-08T06:54:26.830Z,4.47
2023-04-08T06:56:53.653Z,4.43
2023-04-08T06:59:21.180Z,4.90
2023-04-08T07:01:48.599Z,4.00
2023-04-08T07:04:16.303Z,4.40
2023-04-08T07:06:43.696Z,5.05
2023-04-08T07:09:10.601Z,4.82
2023-04-08T07:11:38.168Z,4.72
2023-04-08T07:14:05.574Z,4.78
2023-04-08T07:16:32.877Z,4.80
2023-04-08T07:19:00.306Z,4.95
2023-04-08T07:21:27.557Z,4.80
2023-04-08T07:23:54.907Z,4.53
2023-04-08T07:26:22.247Z,4.20
2023-04-08T07:28:49.784Z,4.72
2023-04-08T07:31:18.197Z,4.82
2023-04-08T07:33:46.390Z,5.20
2023-04-08T07:36:15.290Z,4.68
2023-04-08T07:38:42.216Z,4.95
2023-04-08T07:41:09.537Z,4.07
2023-04-08T07:43:39.796Z,4.15
2023-04-08T07:46:07.384Z,4.05
2023-04-08T07:48:35.033Z,4.97
2023-04-08T07:51:09.639Z,4.78
2023-04-08T07:53:38.930Z,4.38
2023-04-08T07:56:15.042Z,4.32
2023-04-08T07:58:42.799Z,4.38
2023-04-08T08:01:21.775Z,4.57
2023-04-08T08:03:53.502Z,4.18
2023-04-08T08:06:21.824Z,4.57
2023-04-08T08:08:48.693Z,4.60
2023-04-08T08:11:16.133Z,4.57
2023-04-08T08:13:43.389Z,4.78
2023-04-08T08:16:11.842Z,4.45
2023-04-08T08:18:40.482Z,4.35
2023-04-08T08:21:08.163Z,4.05
2023-04-08T08:23:35.109Z,4.53
2023-04-08T08:26:03.570Z,4.38
2023-04-08T08:28:31.217Z,5.25
2023-04-08T08:30:58.573Z,4.72
2023-04-08T08:33:26.795Z,4.38
2023-04-08T08:35:54.049Z,4.10
2023-04-08T08:38:21.375Z,4.78
2023-04-08T08:40:56.962Z,4.65
2023-04-08T08:43:25.315Z,4.18
2023-04-08T08:45:52.714Z,4.65
2023-04-08T08:48:20.582Z,4.25
2023-04-08T08:50:47.846Z,4.13
2023-04-08T08:53:15.391Z,4.70
2023-04-08T08:58:12.653Z,4.90
2023-04-08T09:00:44.888Z,4.78
2023-04-08T09:03:20.653Z,4.40
2023-04-08T09:08:26.457Z,4.13
2023-04-08T09:11:10.532Z,4.75
2023-04-08T09:13:37.562Z,4.97
2023-04-08T09:16:06.725Z,4.38
2023-04-08T09:18:35.698Z,4.40
2023-04-08T09:21:03.802Z,4.35
2023-04-08T09:23:51.706Z,4.68
2023-04-08T09:26:22.934Z,4.22
2023-04-08T09:29:18.428Z,4.22
2023-04-08T09:31:57.952Z,4.43
2023-04-08T09:34:27.364Z,4.70
2023-04-08T09:36:55.098Z,4.90
2023-04-08T09:39:22.414Z,4.45
2023-04-08T09:41:51.213Z,4.20
2023-04-08T09:44:21.102Z,4.18
2023-04-08T09:46:51.679Z,5.20
2023-04-08T09:49:56.377Z,3.85
2023-04-08T09:52:34.400Z,4.18
2023-04-08T09:55:01.589Z,4.13
2023-04-08T09:57:37.044Z,4.28
2023-04-08T10:00:28.829Z,4.03
2023-04-08T10:02:57.350Z,4.28
2023-04-08T10:05:25.880Z,4.00
2023-04-08T10:07:53.442Z,3.72
2023-04-08T10:10:21.205Z,3.85
2023-04-08T10:12:49.266Z,4.35
2023-04-08T10:15:25.439Z,3.58
2023-04-08T10:20:42.604Z,3.78
2023-04-08T10:23:14.332Z,3.40
2023-04-08T10:25:45.546Z,3.55
2023-04-08T10:28:12.849Z,3.80
2023-04-08T10:30:46.999Z,4.18
2023-04-08T10:33:16.708Z,3.72
2023-04-08T10:35:48.643Z,3.15
2023-04-08T10:38:16.835Z,4.10
2023-04-08T10:40:44.661Z,3.67
2023-04-08T10:43:12.669Z,3.90
2023-04-08T10:45:40.749Z,3.67
2023-04-08T10:48:22.614Z,3.45
2023-04-08T10:51:00.776Z,3.00
2023-04-08T10:53:37.978Z,3.15
2023-04-08T10:56:17.906Z,3.33
2023-04-08T10:58:49.859Z,3.80
2023-04-08T11:01:17.553Z,2.85
2023-04-08T11:03:45.074Z,2.95
2023-04-08T11:06:12.426Z,2.70
2023-04-08T11:08:40.040Z,2.63
2023-04-08T11:11:11.185Z,3.10
2023-04-08T11:13:52.029Z,2.80
2023-04-08T11:16:20.101Z,2.72
2023-04-08T11:18:48.088Z,2.92
2023-04-08T11:21:16.764Z,3.20
2023-04-08T11:23:43.853Z,3.63
2023-04-08T11:26:11.409Z,2.60
2023-04-08T11:28:38.732Z,3.20
2023-04-08T11:31:06.323Z,3.13
2023-04-08T11:33:35.118Z,3.47
2023-04-08T11:36:05.842Z,3.15
2023-04-08T11:38:33.149Z,3.75
2023-04-08T11:41:00.493Z,3.28
2023-04-08T11:43:28.610Z,3.55
2023-04-08T11:45:56.088Z,3.45
2023-04-08T11:48:23.845Z,3.85
2023-04-08T11:51:04.786Z,3.63
2023-04-08T11:53:32.057Z,3.17
2023-04-08T11:55:58.888Z,3.22
2023-04-08T11:58:26.406Z,3.10
2023-04-08T12:00:53.712Z,3.10
2023-04-08T12:03:20.543Z,3.05
2023-04-08T12:05:48.359Z,3.53
2023-04-08T12:08:15.236Z,2.88
2023-04-08T12:10:42.526Z,2.90
2023-04-08T12:13:09.673Z,3.00
2023-04-08T12:15:37.016Z,2.88
2023-04-08T12:18:03.988Z,2.90
2023-04-08T12:20:31.260Z,2.95
2023-04-08T12:22:58.200Z,2.92
2023-04-08T12:25:25.151Z,2.75
2023-04-08T12:27:52.311Z,2.40
2023-04-08T12:30:19.222Z,3.08
2023-04-08T12:32:47.624Z,2.80
2023-04-08T12:35:15.176Z,2.83
2023-04-08T12:37:42.474Z,3.00
2023-04-08T12:40:09.488Z,3.30
2023-04-08T12:42:36.405Z,3.10
2023-04-08T12:45:03.314Z,2.72
2023-04-08T12:47:30.445Z,3.15
2023-04-08T12:49:57.585Z,3.05
2023-04-08T12:52:24.627Z,3.25
2023-04-08T12:54:51.428Z,3.10
2023-04-08T12:57:18.237Z,3.50
2023-04-08T12:59:45.457Z,2.17
2023-04-08T13:02:12.306Z,2.53
2023-04-08T13:04:39.333Z,2.45
2023-04-08T13:07:07.560Z,2.63
2023-04-08T13:09:34.407Z,2.20
2023-04-08T13:12:01.236Z,2.45
2023-04-08T13:14:28.751Z,2.47
2023-04-08T13:16:55.663Z,2.05
2023-04-08T13:19:22.584Z,2.17
2023-04-08T13:21:49.350Z,2.03
2023-04-08T13:24:16.150Z,2.05
2023-04-08T13:26:43.003Z,2.42
2023-04-08T13:29:09.770Z,1.98
2023-04-08T13:31:36.582Z,2.08
2023-04-08T13:34:03.455Z,2.88
2023-04-08T13:36:31.606Z,2.78
2023-04-08T13:38:58.538Z,2.50
2023-04-08T13:41:26.153Z,2.88
2023-04-08T13:43:53.740Z,2.58
2023-04-08T13:46:20.878Z,2.50
2023-04-08T13:48:47.710Z,2.05
2023-04-08T13:51:14.637Z,1.90
2023-04-08T13:53:41.635Z,1.88
2023-04-08T13:56:08.623Z,1.83
2023-04-08T13:58:35.529Z,2.10
2023-04-08T14:01:02.736Z,2.20
2023-04-08T14:03:29.742Z,2.75
2023-04-08T14:05:58.170Z,2.05
2023-04-08T14:08:26.106Z,2.13
2023-04-08T14:11:01.717Z,1.80
2023-04-08T14:13:29.369Z,1.88
2023-04-08T14:15:58.414Z,1.83
2023-04-08T14:18:26.160Z,2.22
2023-04-08T14:20:53.410Z,1.92
2023-04-08T14:23:20.311Z,2.30
2023-04-08T14:25:47.671Z,2.20
2023-04-08T14:28:14.448Z,2.30
2023-04-08T14:30:41.728Z,2.03
2023-04-08T14:33:08.617Z,2.20
2023-04-08T14:35:35.468Z,2.60
2023-04-08T14:38:02.674Z,1.90
2023-04-08T14:40:29.919Z,2.42
2023-04-08T14:42:57.176Z,2.92
2023-04-08T14:45:24.364Z,2.90
2023-04-08T14:47:51.659Z,2.85
2023-04-08T14:50:19.501Z,2.88
2023-04-08T14:52:48.557Z,3.47
2023-04-08T14:55:15.904Z,3.40
2023-04-08T14:57:43.122Z,3.03
2023-04-08T15:00:10.572Z,2.95
2023-04-08T15:02:37.833Z,3.42
2023-04-08T15:05:05.036Z,3.40
2023-04-08T15:07:32.040Z,3.45
2023-04-08T15:09:59.278Z,3.78
2023-04-08T15:12:26.171Z,3.08
2023-04-08T15:14:53.462Z,3.13
2023-04-08T15:17:20.397Z,3.28
2023-04-08T15:19:47.635Z,3.20
2023-04-08T15:22:14.623Z,3.35
2023-04-08T15:24:42.580Z,3.03
2023-04-08T15:27:09.528Z,3.05
2023-04-08T15:29:36.832Z,3.53
2023-04-08T15:32:04.066Z,3.22
2023-04-08T15:34:31.301Z,2.83
2023-04-08T15:36:58.439Z,3.10
2023-04-08T15:39:26.005Z,3.28
2023-04-08T15:41:53.283Z,3.13
2023-04-08T15:44:20.605Z,3.00
2023-04-08T15:46:48.020Z,2.72
2023-04-08T15:49:14.903Z,2.92
2023-04-08T15:51:44.559Z,2.92
2023-04-08T15:54:11.868Z,2.80
2023-04-08T15:56:39.134Z,2.65
2023-04-08T15:59:06.272Z,2.42
2023-04-08T16:01:33.789Z,2.15
2023-04-08T16:04:01.341Z,2.78
2023-04-08T16:06:28.869Z,2.45
2023-04-08T16:08:56.740Z,3.03
2023-04-08T16:11:25.241Z,2.65
2023-04-08T16:13:52.648Z,2.80
2023-04-08T16:16:20.108Z,3.00
2023-04-08T16:18:47.652Z,2.97
2023-04-08T16:21:15.436Z,2.65
2023-04-08T16:23:42.259Z,2.83
2023-04-08T16:26:09.500Z,2.90
2023-04-08T16:28:37.141Z,3.00
2023-04-08T16:31:04.098Z,2.38
2023-04-08T16:33:31.996Z,2.90
2023-04-08T16:36:00.083Z,2.92
2023-04-08T16:38:27.477Z,3.08
2023-04-08T16:40:57.740Z,2.90
2023-04-08T16:43:25.706Z,2.70
2023-04-08T16:45:53.330Z,2.80
2023-04-08T16:48:20.728Z,2.75
2023-04-08T16:50:47.932Z,2.67
2023-04-08T16:53:14.711Z,2.70
2023-04-08T16:55:41.992Z,2.38
2023-04-08T16:58:09.443Z,2.75
2023-04-08T17:00:36.700Z,2.75
2023-04-08T17:03:03.999Z,2.25
2023-04-08T17:05:31.023Z,2.10
2023-04-08T17:07:58.568Z,2.47
2023-04-08T17:10:25.492Z,2.30
2023-04-08T17:12:52.760Z,2.53
2023-04-08T17:15:19.994Z,2.83
2023-04-08T17:17:47.894Z,2.38
2023-04-08T17:20:15.685Z,3.00
2023-04-08T17:22:43.264Z,3.08
2023-04-08T17:25:11.572Z,2.58
2023-04-08T17:27:38.858Z,3.05
2023-04-08T17:30:06.233Z,3.03
2023-04-08T17:32:34.046Z,2.90
2023-04-08T17:35:02.277Z,3.00
2023-04-08T17:37:29.561Z,8.02
2023-04-08T17:39:56.757Z,4.70
2023-04-08T17:42:24.307Z,3.42
2023-04-08T17:44:51.563Z,3.90
2023-04-08T17:47:20.950Z,3.45
2023-04-08T17:49:48.253Z,3.22
2023-04-08T17:52:15.099Z,3.67
2023-04-08T17:54:41.881Z,3.22
2023-04-08T17:57:09.147Z,5.13
2023-04-08T17:59:36.168Z,3.42
2023-04-08T18:02:03.568Z,3.70
2023-04-08T18:04:30.851Z,3.75
2023-04-08T18:06:58.170Z,2.63
2023-04-08T18:09:25.393Z,2.65
2023-04-08T18:11:52.683Z,2.40
2023-04-08T18:14:19.513Z,2.92
2023-04-08T18:16:46.757Z,2.78
2023-04-08T18:19:13.567Z,2.65
2023-04-08T18:21:40.876Z,2.13
2023-04-08T18:24:09.279Z,1.95
2023-04-08T18:26:36.494Z,1.73
2023-04-08T18:29:03.465Z,1.85
2023-04-08T18:31:31.749Z,1.65
2023-04-08T18:33:58.956Z,1.80
2023-04-08T18:36:26.606Z,1.90
2023-04-08T18:38:53.822Z,1.83
2023-04-08T18:41:23.268Z,1.85
2023-04-08T18:43:50.775Z,2.10
2023-04-08T18:46:19.832Z,1.80
2023-04-08T18:48:49.101Z,1.63
2023-04-08T18:51:19.244Z,1.65
2023-04-08T18:53:46.268Z,1.83
2023-04-08T18:56:17.792Z,1.70
2023-04-08T18:58:46.779Z,1.80
2023-04-08T19:01:14.869Z,1.88
2023-04-08T19:03:43.473Z,1.70
2023-04-08T19:06:12.658Z,1.63
2023-04-08T19:08:40.016Z,2.00
2023-04-08T19:11:07.239Z,1.55
2023-04-08T19:13:34.507Z,1.80
2023-04-08T19:16:01.816Z,2.13
2023-04-08T19:18:28.611Z,1.88
2023-04-08T19:20:55.816Z,2.22
2023-04-08T19:23:23.167Z,1.63
2023-04-08T19:25:50.385Z,2.10
2023-04-08T19:28:17.237Z,1.90
2023-04-08T19:30:44.059Z,2.50
2023-04-08T19:33:11.332Z,2.13
2023-04-08T19:35:38.756Z,1.83
2023-04-08T19:38:05.964Z,2.25
2023-04-08T19:40:33.235Z,2.17
2023-04-08T19:43:00.743Z,1.95
2023-04-08T19:45:27.775Z,2.20
2023-04-08T19:47:54.655Z,2.30
2023-04-08T19:50:22.310Z,2.25
2023-04-08T19:52:49.625Z,2.60
2023-04-08T19:55:16.995Z,2.40
2023-04-08T19:57:43.825Z,2.22
2023-04-08T20:00:13.562Z,2.72
2023-04-08T20:02:41.604Z,2.42
2023-04-08T20:05:14.603Z,2.38
2023-04-08T20:07:41.857Z,2.55
2023-04-08T20:10:09.182Z,2.38
2023-04-08T20:12:36.283Z,2.55
2023-04-08T20:15:03.552Z,2.55
2023-04-08T20:17:30.533Z,2.80
2023-04-08T20:19:57.740Z,2.90
2023-04-08T20:22:25.680Z,2.72
2023-04-08T20:24:52.966Z,3.03
2023-04-08T20:27:20.375Z,3.03
2023-04-08T20:29:47.574Z,2.40
2023-04-08T20:32:14.809Z,2.58
2023-04-08T20:34:41.778Z,3.15
2023-04-08T20:37:08.611Z,2.75
2023-04-08T20:39:35.421Z,2.95
2023-04-08T20:42:02.385Z,3.50
2023-04-08T20:44:29.160Z,2.92
2023-04-08T20:46:55.976Z,3.63
2023-04-08T20:49:23.248Z,3.33
2023-04-08T20:51:50.583Z,3.63
2023-04-08T20:54:17.362Z,2.90
2023-04-08T20:56:44.620Z,3.53
2023-04-08T20:59:11.660Z,3.70
2023-04-08T21:01:38.490Z,3.20
2023-04-08T21:04:06.249Z,3.83
2023-04-08T21:06:33.524Z,3.13
2023-04-08T21:09:00.428Z,2.65
2023-04-08T21:11:28.445Z,2.95
2023-04-08T21:13:56.347Z,3.47
2023-04-08T21:16:23.824Z,3.42
2023-04-08T21:18:51.295Z,3.10
2023-04-08T21:21:18.697Z,3.53
2023-04-08T21:23:45.640Z,3.00
2023-04-08T21:26:13.489Z,3.22
2023-04-08T21:28:40.779Z,3.50
2023-04-08T21:31:12.427Z,3.53
2023-04-08T21:33:40.172Z,2.97
2023-04-08T21:36:07.480Z,2.85
2023-04-08T21:38:35.272Z,2.88
2023-04-08T21:41:02.174Z,3.25
2023-04-08T21:43:29.051Z,2.90
2023-04-08T21:45:55.929Z,3.47
2023-04-08T21:48:23.526Z,3.47
2023-04-08T21:50:50.830Z,2.42
2023-04-08T21:53:18.106Z,3.22
2023-04-08T21:55:45.637Z,3.70
2023-04-08T21:58:12.916Z,3.17
2023-04-08T22:00:40.136Z,3.28
2023-04-08T22:03:07.694Z,3.85
2023-04-08T22:05:35.299Z,2.97
2023-04-08T22:08:02.232Z,3.40
2023-04-08T22:10:29.156Z,3.08
2023-04-08T22:12:56.413Z,3.00
2023-04-08T22:15:23.458Z,3.13
2023-04-08T22:17:50.759Z,3.65
2023-04-08T22:20:18.107Z,3.28
2023-04-08T22:22:44.926Z,2.75
2023-04-08T22:25:12.196Z,2.97
2023-04-08T22:27:39.441Z,3.00
2023-04-08T22:30:07.044Z,2.53
2023-04-08T22:32:33.937Z,2.65
2023-04-08T22:35:01.252Z,2.65
2023-04-08T22:37:28.439Z,2.78
2023-04-08T22:39:55.419Z,2.00
2023-04-08T22:42:22.688Z,2.65
2023-04-08T22:44:49.506Z,2.38
2023-04-08T22:47:18.149Z,2.35
2023-04-08T22:49:45.264Z,2.58
2023-04-08T22:52:12.505Z,2.42
2023-04-08T22:54:39.317Z,2.65
2023-04-08T22:57:06.387Z,2.78
2023-04-08T22:59:33.590Z,3.00
2023-04-08T23:02:00.677Z,2.60
2023-04-08T23:04:28.151Z,2.50
2023-04-08T23:06:55.516Z,3.40
2023-04-08T23:09:24.497Z,3.42
2023-04-08T23:11:51.732Z,3.45
2023-04-08T23:14:18.584Z,3.45
2023-04-08T23:16:46.000Z,3.20
2023-04-08T23:19:13.330Z,2.90
2023-04-08T23:21:40.806Z,2.70
2023-04-08T23:24:08.128Z,2.40
2023-04-08T23:26:35.425Z,2.90
2023-04-08T23:29:02.357Z,2.58
2023-04-08T23:31:29.618Z,2.08
2023-04-08T23:33:56.468Z,2.50
2023-04-08T23:36:23.730Z,2.30
2023-04-08T23:38:51.212Z,2.72
2023-04-08T23:41:18.681Z,2.65
2023-04-08T23:43:46.649Z,2.47
2023-04-08T23:46:13.633Z,2.42
2023-04-08T23:48:41.095Z,2.60
2023-04-08T23:51:08.330Z,3.00
2023-04-08T23:53:35.551Z,2.50
2023-04-08T23:56:09.736Z,2.33
2023-04-08T23:58:37.251Z,2.97
